Sabula, IA

1:07 AM CDT on August 31, 2016 (GMT -0500)
Tri-Township

Weather History for KSFY - September, 2013

Change the Weather History Date:

Friday, September 20, 2013

  Actual Average (KCWI) Record (KCWI)
Temperature  
Mean Temperature 64 °F -  
Max Temperature 70 °F 74 °F 89 °F (1959)
Min Temperature 58 °F 52 °F 30 °F (1962)
Degree Days  
Heating Degree Days 1    
Growing Degree Days 14 (Base 50)    
Moisture  
Dew Point 57 °F    
Average Humidity 74    
Maximum Humidity 92    
Minimum Humidity 51    
Precipitation  
Precipitation 0.02 in - - ()
Sea Level Pressure  
Sea Level Pressure 29.85 in    
Wind  
Wind Speed 9 mph (West)    
Max Wind Speed 16 mph    
Max Gust Speed 21 mph    
Visibility 10 miles    
Events Rain    
Averages and records for this station are not official NWS values.
T = Trace of Precipitation, MM = Missing Value Source: NWS Daily Summary

Daily Weather History Graph

Daily Weather History Graph

Search for Another Location

Airport or City:

Trip Planner

Search our weather history database for the weather conditions in past years. The results will help you decide how hot, cold, wet, or windy it might be!

Date:

Astronomy

Sep. 20, 2013 Rise Set
Actual Time 6:46 AM CDT 7:00 PM CDT
Civil Twilight 6:18 AM CDT 7:28 PM CDT
Nautical Twilight 5:45 AM CDT 8:01 PM CDT
Astronomical Twilight 5:11 AM CDT 8:34 PM CDT
Moon 7:32 PM CDT (9/20) 8:02 AM CDT (9/20)
Length of Visible Light 13h 10m
Length of Day
12h 14m
Full, 98% of the Moon is Illuminated
Sep 20
Full
Sep 26
Last Quarter
Oct 4
New
Oct 11
First Quarter
Oct 18
Full

Hourly Weather History & Observations

Time (CDT) Temp. Dew Point Humidity Pressure Visibility Wind Dir Wind Speed Gust Speed Precip Events Conditions
12:15 AM 68.4 °F 65.5 °F 90% 29.85 in 10.0 mi SW 8.1 mph - N/A   Drizzle
12:35 AM 68.0 °F 64.8 °F 89% 29.84 in 10.0 mi SSW 9.2 mph - N/A   Light Drizzle
12:55 AM 68.0 °F 64.9 °F 90% 29.84 in 10.0 mi South 10.4 mph - N/A   Drizzle
1:15 AM 67.8 °F 65.3 °F 92% 29.82 in 10.0 mi South 5.8 mph - N/A Rain Light Rain
1:35 AM 67.6 °F 65.3 °F 92% 29.81 in 10.0 mi SW 6.9 mph - N/A Rain Light Rain
1:55 AM 67.6 °F 65.3 °F 92% 29.81 in 10.0 mi SW 8.1 mph - 0.01 in Rain Light Rain
2:15 AM 67.6 °F 64.9 °F 91% 29.79 in 10.0 mi SSW 9.2 mph - N/A   Scattered Clouds
2:35 AM 67.6 °F 64.9 °F 91% 29.79 in 10.0 mi SW 9.2 mph - N/A   Mostly Cloudy
2:55 AM 67.6 °F 64.8 °F 90% 29.79 in 10.0 mi WSW 9.2 mph - N/A   Overcast
3:15 AM 68.0 °F 64.8 °F 89% 29.80 in 10.0 mi WSW 10.4 mph 17.3 mph N/A   Overcast
3:35 AM 68.0 °F 64.6 °F 89% 29.80 in 10.0 mi WSW 11.5 mph 17.3 mph N/A   Overcast
3:55 AM 68.0 °F 64.6 °F 89% 29.80 in 10.0 mi WSW 11.5 mph 20.7 mph N/A   Overcast
4:15 AM 68.0 °F 64.6 °F 89% 29.80 in 10.0 mi WSW 11.5 mph 18.4 mph N/A   Overcast
4:35 AM 68.0 °F 64.6 °F 89% 29.81 in 10.0 mi WSW 12.7 mph 18.4 mph N/A   Overcast
4:55 AM 68.0 °F 64.6 °F 89% 29.79 in 10.0 mi WSW 8.1 mph - N/A   Overcast
5:15 AM 68.0 °F 64.8 °F 89% 29.80 in 10.0 mi WSW 9.2 mph - N/A   Overcast
5:35 AM 68.0 °F 64.8 °F 89% 29.81 in 10.0 mi WSW 9.2 mph - N/A   Overcast
5:55 AM 68.0 °F 64.8 °F 89% 29.81 in 10.0 mi WSW 5.8 mph - N/A   Overcast
6:15 AM 68.2 °F 64.8 °F 89% 29.81 in 10.0 mi WSW 5.8 mph - N/A   Overcast
6:35 AM 68.0 °F 64.6 °F 89% 29.83 in 10.0 mi WSW 6.9 mph - N/A   Scattered Clouds
6:55 AM 67.8 °F 64.4 °F 89% 29.83 in 10.0 mi West 4.6 mph - N/A   Scattered Clouds
7:15 AM 67.5 °F 64.0 °F 89% 29.84 in 10.0 mi West 5.8 mph - N/A   Clear
7:35 AM 66.7 °F 62.8 °F 87% 29.84 in 10.0 mi WSW 6.9 mph - N/A   Mostly Cloudy
7:55 AM 65.7 °F 60.8 °F 84% 29.85 in 10.0 mi West 6.9 mph - N/A   Scattered Clouds
8:15 AM 65.3 °F 59.7 °F 82% 29.86 in 10.0 mi West 8.1 mph - N/A   Clear
8:35 AM 64.9 °F 58.8 °F 81% 29.87 in 10.0 mi West 6.9 mph - N/A   Clear
8:55 AM 64.6 °F 58.5 °F 80% 29.86 in 10.0 mi West 9.2 mph - N/A   Clear
9:15 AM 64.4 °F 57.2 °F 77% 29.87 in 10.0 mi WNW 10.4 mph - N/A   Clear
9:35 AM 64.6 °F 57.0 °F 76% 29.88 in 10.0 mi West 11.5 mph - N/A   Scattered Clouds
9:55 AM 64.8 °F 56.7 °F 75% 29.88 in 10.0 mi West 9.2 mph - N/A   Scattered Clouds
10:15 AM 64.8 °F 56.3 °F 74% 29.88 in 10.0 mi West 11.5 mph - N/A   Clear
10:35 AM 65.8 °F 56.5 °F 72% 29.87 in 10.0 mi West 6.9 mph - N/A   Clear
10:55 AM 67.1 °F 56.7 °F 69% 29.87 in 10.0 mi West 8.1 mph - N/A   Clear
11:15 AM 66.9 °F 55.9 °F 68% 29.87 in 10.0 mi West 9.2 mph - N/A   Clear
11:35 AM 67.6 °F 56.1 °F 67% 29.87 in 10.0 mi West 9.2 mph - N/A   Clear
11:55 AM 68.4 °F 54.7 °F 62% 29.86 in 10.0 mi West 9.2 mph - N/A   Clear
12:15 PM 69.4 °F 54.0 °F 58% 29.86 in 10.0 mi West 10.4 mph 17.3 mph N/A   Clear
12:35 PM 70.0 °F 52.2 °F 53% 29.86 in 10.0 mi West 10.4 mph 17.3 mph N/A   Clear
12:55 PM 68.9 °F 50.0 °F 51% 29.86 in 10.0 mi West 10.4 mph 18.4 mph N/A   Clear
1:15 PM 70.0 °F 51.3 °F 51% 29.86 in 10.0 mi West 12.7 mph 17.3 mph N/A   Clear
1:35 PM 69.4 °F 52.2 °F 54% 29.86 in 10.0 mi West 11.5 mph - N/A   Clear
1:55 PM 68.9 °F 52.7 °F 56% 29.86 in 10.0 mi WNW 10.4 mph - N/A   Scattered Clouds
2:15 PM 68.0 °F 51.6 °F 56% 29.86 in 10.0 mi WNW 13.8 mph 18.4 mph N/A   Mostly Cloudy
2:35 PM 66.9 °F 50.2 °F 55% 29.86 in 10.0 mi WNW 16.1 mph - N/A   Mostly Cloudy
2:55 PM 66.9 °F 51.3 °F 57% 29.87 in 10.0 mi WNW 12.7 mph 19.6 mph N/A   Mostly Cloudy
3:15 PM 66.9 °F 50.4 °F 55% 29.87 in 10.0 mi WNW 11.5 mph 19.6 mph N/A   Scattered Clouds
3:35 PM 66.7 °F 50.9 °F 57% 29.87 in 10.0 mi West 10.4 mph 17.3 mph N/A   Mostly Cloudy
3:55 PM 67.1 °F 50.2 °F 55% 29.87 in 10.0 mi West 11.5 mph 18.4 mph N/A   Mostly Cloudy
4:15 PM 66.4 °F 50.2 °F 56% 29.87 in 10.0 mi WNW 13.8 mph 20.7 mph N/A   Mostly Cloudy
4:35 PM 66.0 °F 49.8 °F 56% 29.87 in 10.0 mi West 10.4 mph 20.7 mph N/A   Mostly Cloudy
4:55 PM 65.7 °F 50.2 °F 57% 29.87 in 10.0 mi NW 9.2 mph - N/A   Overcast
5:15 PM 65.5 °F 51.1 °F 60% 29.87 in 10.0 mi WNW 10.4 mph 16.1 mph N/A   Overcast
5:35 PM 65.3 °F 51.1 °F 60% 29.87 in 10.0 mi WNW 12.7 mph 16.1 mph N/A   Overcast
5:55 PM 64.6 °F 50.7 °F 61% 29.87 in 10.0 mi WNW 12.7 mph 17.3 mph N/A   Overcast
6:15 PM 64.4 °F 51.6 °F 63% 29.87 in 10.0 mi West 6.9 mph - N/A   Overcast
6:35 PM 64.0 °F 51.4 °F 64% 29.87 in 10.0 mi West 10.4 mph - N/A   Overcast
6:55 PM 63.7 °F 51.4 °F 64% 29.88 in 10.0 mi West 9.2 mph - N/A   Overcast
7:15 PM 63.5 °F 51.8 °F 66% 29.88 in 10.0 mi West 6.9 mph - N/A   Overcast
7:35 PM 63.1 °F 51.8 °F 66% 29.88 in 10.0 mi West 6.9 mph - N/A   Overcast
7:55 PM 62.8 °F 52.3 °F 69% 29.88 in 10.0 mi West 6.9 mph - N/A   Overcast
8:15 PM 62.1 °F 52.2 °F 70% 29.88 in 10.0 mi West 8.1 mph - N/A   Mostly Cloudy
8:35 PM 61.5 °F 52.5 °F 72% 29.88 in 10.0 mi West 6.9 mph - N/A   Clear
8:55 PM 61.2 °F 52.7 °F 74% 29.88 in 10.0 mi West 6.9 mph - N/A   Clear
9:15 PM 61.2 °F 52.9 °F 74% 29.88 in 10.0 mi West 6.9 mph - N/A   Clear
9:35 PM 61.2 °F 52.7 °F 74% 29.88 in 10.0 mi WNW 9.2 mph - N/A   Clear
9:55 PM 60.8 °F 52.7 °F 75% 29.89 in 10.0 mi West 8.1 mph - 0.01 in   Clear
10:15 PM 60.6 °F 52.5 °F 75% 29.89 in 10.0 mi West 9.2 mph - N/A   Clear
10:35 PM 60.1 °F 52.2 °F 75% 29.89 in 10.0 mi WNW 10.4 mph - N/A   Clear
10:55 PM 59.9 °F 51.8 °F 75% 29.89 in 10.0 mi WNW 11.5 mph - N/A   Clear
11:15 PM 59.0 °F 51.3 °F 75% 29.89 in 10.0 mi WNW 10.4 mph - N/A   Clear
11:35 PM 58.6 °F 50.9 °F 75% 29.89 in 10.0 mi WNW 9.2 mph - N/A   Clear
11:55 PM 58.3 °F 50.5 °F 75% 29.89 in 10.0 mi WNW 8.1 mph - N/A   Clear